Time;durP1;ratioP1;P1;durP2;ratioP2;P2;SDS_P1;SDS_P2;PMS_P1;PMS_P2;Temp;Humidity;BMP_temperature;BMP_pressure;BME280_temperature;BME280_humidity;BME280_pressure;Samples;Min_cycle;Max_cycle;Signal;HPM_P1;HPM_P2
2022/06/29 00:01:47;;;;;;;5.50;5.10;;;;;;;20.20;66.53;96590.44;6154234;23;20049;-79
2022/06/29 00:04:14;;;;;;;5.50;5.00;;;;;;;20.12;66.65;96576.56;6154162;23;20029;-78
2022/06/29 00:06:42;;;;;;;7.57;5.15;;;;;;;20.07;66.48;96587.09;6154767;23;20035;-79
2022/06/29 00:09:10;;;;;;;5.72;4.57;;;;;;;20.01;66.72;96582.78;6154176;23;20053;-79
2022/06/29 00:11:38;;;;;;;5.22;4.78;;;;;;;20.00;66.83;96588.28;6154213;23;20018;-79
2022/06/29 00:14:07;;;;;;;5.50;4.57;;;;;;;20.01;67.70;96588.06;6154068;23;20025;-78
2022/06/29 00:16:35;;;;;;;5.53;4.40;;;;;;;20.08;69.14;96596.63;6154806;23;20123;-79
2022/06/29 00:19:02;;;;;;;4.28;3.97;;;;;;;20.13;69.42;96598.56;6156374;23;20453;-79
2022/06/29 00:21:30;;;;;;;5.97;4.75;;;;;;;20.15;68.30;96588.53;6155447;23;20018;-79
2022/06/29 00:23:59;;;;;;;6.05;5.35;;;;;;;20.12;67.34;96587.16;6155864;23;20385;-79
2022/06/29 00:26:26;;;;;;;6.47;4.78;;;;;;;20.10;67.21;96583.16;6155980;23;20021;-78
2022/06/29 00:28:54;;;;;;;5.75;4.80;;;;;;;20.08;67.91;96579.94;6156411;23;20464;-79
2022/06/29 00:31:23;;;;;;;5.22;4.80;;;;;;;20.04;67.14;96584.13;6155819;23;20017;-79
2022/06/29 00:33:51;;;;;;;5.15;4.60;;;;;;;19.98;67.28;96580.59;6155846;23;20461;-79
2022/06/29 00:36:18;;;;;;;6.57;4.53;;;;;;;19.89;66.96;96587.34;6155963;23;20108;-79
2022/06/29 00:38:46;;;;;;;5.55;4.45;;;;;;;19.82;67.22;96581.41;6156000;23;20040;-79
2022/06/29 00:41:14;;;;;;;4.40;3.90;;;;;;;19.74;67.36;96583.41;6155390;23;20037;-79
2022/06/29 00:43:42;;;;;;;4.82;4.43;;;;;;;19.69;67.62;96578.03;6156109;23;20362;-79
2022/06/29 00:46:10;;;;;;;5.68;5.07;;;;;;;19.66;67.60;96575.03;6155702;23;20037;-79
2022/06/29 00:48:39;;;;;;;5.18;4.72;;;;;;;19.60;67.64;96587.38;6157246;23;20026;-79
2022/06/29 00:51:11;;;;;;;5.03;4.63;;;;;;;19.56;67.96;96583.59;6155897;23;20502;-79
2022/06/29 00:53:41;;;;;;;;;;;;;;;19.56;67.97;96588.91;6156713;23;20101;-79
2022/06/29 00:56:10;;;;;;;5.15;4.32;;;;;;;19.50;67.89;96593.31;6155653;23;20399;-79
2022/06/29 00:58:39;;;;;;;5.22;4.75;;;;;;;19.45;68.16;96584.47;6156014;23;20030;-79
2022/06/29 01:01:07;;;;;;;4.30;3.90;;;;;;;19.43;68.35;96586.56;6155587;23;20022;-79
2022/06/29 01:03:35;;;;;;;4.30;3.90;;;;;;;19.45;68.55;96582.63;6155670;23;20055;-79
2022/06/29 01:06:04;;;;;;;4.78;4.38;;;;;;;19.47;68.67;96582.41;6155451;23;20017;-78
2022/06/29 01:08:32;;;;;;;4.90;4.40;;;;;;;19.46;68.23;96588.72;6155939;23;20060;-79
2022/06/29 01:10:59;;;;;;;4.70;4.30;;;;;;;19.42;68.17;96588.41;6155592;23;20037;-79
2022/06/29 01:13:27;;;;;;;4.75;4.22;;;;;;;19.37;68.38;96579.56;6155594;23;20041;-79
2022/06/29 01:15:54;;;;;;;5.28;4.78;;;;;;;19.32;68.42;96580.28;6155848;23;20049;-79
2022/06/29 01:18:22;;;;;;;4.75;4.22;;;;;;;19.29;68.48;96578.91;6155758;23;20370;-79
2022/06/29 01:20:50;;;;;;;6.70;4.88;;;;;;;19.26;68.67;96579.41;6155744;23;20072;-79
2022/06/29 01:23:19;;;;;;;5.45;4.95;;;;;;;19.26;68.54;96575.94;6156534;23;20385;-79
2022/06/29 01:25:49;;;;;;;4.82;4.32;;;;;;;19.28;68.53;96587.09;6155530;23;20282;-78
2022/06/29 01:28:17;;;;;;;5.03;4.63;;;;;;;19.25;68.36;96577.78;6156237;23;20056;-79
2022/06/29 01:30:44;;;;;;;4.88;4.47;;;;;;;19.22;68.51;96575.63;6155949;23;20026;-79
2022/06/29 01:33:12;;;;;;;7.47;5.13;;;;;;;19.21;68.76;96576.66;6155779;23;20022;-79
2022/06/29 01:35:40;;;;;;;5.70;5.20;;;;;;;19.18;68.60;96579.78;6155691;23;20056;-79
2022/06/29 01:38:07;;;;;;;10.63;5.22;;;;;;;19.13;68.77;96579.66;6155845;23;20057;-79
2022/06/29 01:40:37;;;;;;;5.65;5.15;;;;;;;19.09;68.95;96579.34;6155157;23;20090;-79
2022/06/29 01:43:05;;;;;;;5.70;4.82;;;;;;;19.07;68.90;96570.84;6155393;23;20098;-79
2022/06/29 01:45:33;;;;;;;6.07;5.25;;;;;;;19.05;69.05;96564.22;6155601;23;20073;-78
2022/06/29 01:48:00;;;;;;;5.80;5.20;;;;;;;19.04;69.28;96557.28;6158844;23;20021;-81
2022/06/29 01:50:28;;;;;;;5.68;5.18;;;;;;;19.01;69.22;96547.22;6179117;23;20025;-81
2022/06/29 01:52:55;;;;;;;6.28;5.70;;;;;;;19.00;69.21;96548.22;6177048;23;20006;-80
2022/06/29 01:55:23;;;;;;;5.57;5.13;;;;;;;18.97;69.38;96546.06;6156745;23;20057;-80
2022/06/29 01:57:52;;;;;;;5.95;5.35;;;;;;;18.96;69.41;96542.63;6156474;23;20047;-78
2022/06/29 02:00:20;;;;;;;6.05;5.45;;;;;;;18.95;69.34;96541.00;6155539;23;20025;-79
2022/06/29 02:02:47;;;;;;;4.57;4.25;;;;;;;18.91;69.52;96540.69;6155044;23;20028;-79
2022/06/29 02:05:15;;;;;;;5.55;4.95;;;;;;;18.91;69.43;96545.16;6155558;23;20068;-78
2022/06/29 02:07:43;;;;;;;5.63;5.05;;;;;;;18.90;69.53;96544.38;6155373;23;20021;-78
2022/06/29 02:10:10;;;;;;;4.75;4.35;;;;;;;18.90;69.84;96538.28;6155334;23;20096;-78
2022/06/29 02:12:38;;;;;;;5.13;4.63;;;;;;;18.91;69.65;96530.13;6154927;23;20524;-78
2022/06/29 02:15:08;;;;;;;6.28;5.07;;;;;;;18.90;69.65;96538.28;6155066;23;20049;-78
2022/06/29 02:17:36;;;;;;;6.05;5.15;;;;;;;18.87;69.70;96529.00;6155079;23;20031;-78
2022/06/29 02:20:05;;;;;;;6.50;5.15;;;;;;;18.86;69.64;96532.66;6155024;23;20353;-79
2022/06/29 02:22:33;;;;;;;5.38;4.93;;;;;;;18.85;70.05;96531.06;6155363;23;20350;-78
2022/06/29 02:25:01;;;;;;;5.03;4.63;;;;;;;18.83;70.06;96517.28;6154745;23;20505;-78
2022/06/29 02:27:28;;;;;;;4.72;4.32;;;;;;;18.83;70.09;96522.56;6154944;23;20018;-78
2022/06/29 02:29:56;;;;;;;6.38;5.30;;;;;;;18.86;70.11;96522.09;6154713;23;20477;-78
2022/06/29 02:35:10;;;;;;;4.93;4.53;;;;;;;18.91;70.08;96527.50;6155029;23;20092;-79
2022/06/29 02:37:38;;;;;;;5.18;4.68;;;;;;;18.91;70.02;96524.03;6155217;23;20029;-78
2022/06/29 02:40:06;;;;;;;5.03;4.55;;;;;;;18.89;69.98;96521.63;6154631;23;20025;-78
2022/06/29 02:42:34;;;;;;;5.93;5.15;;;;;;;18.86;70.16;96527.38;6155102;23;20018;-78
2022/06/29 02:45:21;;;;;;;5.53;5.10;;;;;;;18.83;70.21;96517.28;6156214;23;20022;-79
2022/06/29 02:47:50;;;;;;;5.18;4.63;;;;;;;18.80;70.43;96507.16;6156037;23;20394;-79
2022/06/29 02:50:18;;;;;;;4.63;4.22;;;;;;;18.83;70.70;96519.13;6154646;23;20029;-78
2022/06/29 02:52:46;;;;;;;5.13;4.65;;;;;;;18.86;70.60;96516.81;6155202;23;20028;-79
2022/06/29 02:55:14;;;;;;;5.05;4.65;;;;;;;18.91;70.64;96521.38;6155107;23;20025;-78
2022/06/29 02:57:41;;;;;;;5.72;4.50;;;;;;;18.96;70.29;96525.94;6155133;23;20021;-79
2022/06/29 03:00:10;;;;;;;4.90;4.53;;;;;;;18.99;70.39;96514.91;6154282;23;20029;-78
2022/06/29 03:02:37;;;;;;;5.22;4.57;;;;;;;19.02;70.23;96520.53;6155534;23;20033;-79
2022/06/29 03:05:07;;;;;;;4.68;4.28;;;;;;;19.07;70.88;96517.19;6155159;23;20130;-79
2022/06/29 03:07:35;;;;;;;5.53;5.03;;;;;;;19.10;70.41;96522.00;6154504;23;20028;-78
2022/06/29 03:10:03;;;;;;;6.55;5.85;;;;;;;19.12;69.66;96519.91;6154730;23;20056;-79
2022/06/29 03:12:31;;;;;;;5.22;4.63;;;;;;;19.11;69.62;96515.66;6154795;23;20049;-78
2022/06/29 03:14:58;;;;;;;5.13;4.63;;;;;;;19.09;69.40;96520.41;6154376;23;20064;-79
2022/06/29 03:17:26;;;;;;;5.32;4.80;;;;;;;19.07;69.49;96514.53;6154953;23;20393;-79
2022/06/29 03:19:53;;;;;;;6.05;4.85;;;;;;;19.05;69.49;96513.97;6154912;23;20053;-79
2022/06/29 03:22:22;;;;;;;5.18;4.78;;;;;;;19.04;69.68;96518.44;6154627;23;20104;-79
2022/06/29 03:24:50;;;;;;;5.07;4.57;;;;;;;19.04;69.69;96509.72;6154772;23;20033;-79
2022/06/29 03:27:18;;;;;;;4.30;3.90;;;;;;;19.06;69.69;96502.34;6154438;23;20022;-78
2022/06/29 03:29:45;;;;;;;4.82;4.38;;;;;;;19.10;69.77;96506.13;6154302;23;20065;-79
2022/06/29 03:32:13;;;;;;;4.90;4.50;;;;;;;19.14;70.64;96499.31;6154166;23;20462;-80
2022/06/29 03:34:41;;;;;;;6.22;5.13;;;;;;;19.13;69.59;96501.16;6154483;23;20025;-78
2022/06/29 03:37:08;;;;;;;5.07;4.57;;;;;;;19.15;70.48;96503.56;6154461;23;20026;-79
2022/06/29 03:39:38;;;;;;;6.32;5.72;;;;;;;19.20;70.55;96502.84;6155089;23;20029;-78
2022/06/29 03:42:06;;;;;;;5.00;4.60;;;;;;;19.23;70.44;96505.03;6154606;23;20029;-79
2022/06/29 03:44:33;;;;;;;5.00;4.50;;;;;;;19.27;71.69;96508.81;6154161;23;20024;-78
2022/06/29 03:47:01;;;;;;;6.32;5.78;;;;;;;19.27;70.05;96511.44;6154108;23;20073;-78
2022/06/29 03:49:32;;;;;;;5.63;5.13;;;;;;;19.21;69.66;96518.47;6154836;23;20360;-78
2022/06/29 03:52:00;;;;;;;6.53;5.45;;;;;;;19.15;69.55;96516.78;6155236;23;20389;-79
2022/06/29 03:54:28;;;;;;;6.22;4.70;;;;;;;19.11;69.84;96499.78;6156161;23;20029;-79
2022/06/29 03:56:57;;;;;;;6.20;4.68;;;;;;;19.09;69.80;96491.31;6156324;23;20517;-79
2022/06/29 03:59:25;;;;;;;5.47;5.00;;;;;;;19.10;69.79;96495.53;6158695;23;20052;-78
2022/06/29 04:01:52;;;;;;;5.75;4.75;;;;;;;19.12;69.90;96504.84;6157801;23;20084;-78
2022/06/29 04:04:20;;;;;;;5.78;4.82;;;;;;;19.12;69.94;96506.69;6156437;23;20024;-79
2022/06/29 04:06:48;;;;;;;5.45;5.05;;;;;;;19.12;70.06;96507.47;6156809;23;20018;-78
2022/06/29 04:09:16;;;;;;;10.07;5.65;;;;;;;19.15;70.02;96508.84;6156538;23;20096;-78
2022/06/29 04:11:49;;;;;;;5.72;5.13;;;;;;;19.15;69.83;96508.84;6156708;23;20041;-78
2022/06/29 04:14:20;;;;;;;5.47;4.97;;;;;;;19.14;70.05;96508.06;6156503;23;20093;-78
2022/06/29 04:16:48;;;;;;;6.10;5.60;;;;;;;19.11;69.97;96502.44;6156758;23;20025;-79
2022/06/29 04:19:16;;;;;;;6.22;5.57;;;;;;;19.07;70.13;96490.75;6156425;23;20100;-78
2022/06/29 04:21:43;;;;;;;5.88;5.38;;;;;;;19.05;70.16;96503.41;6156624;23;20064;-79
2022/06/29 04:24:11;;;;;;;7.22;5.28;;;;;;;19.05;70.26;96503.41;6156552;23;20022;-78
2022/06/29 04:26:39;;;;;;;4.93;4.53;;;;;;;19.06;70.30;96505.00;6156148;23;20064;-79
2022/06/29 04:29:07;;;;;;;5.95;5.30;;;;;;;19.07;70.33;96506.63;6156409;23;20027;-78
2022/06/29 04:31:36;;;;;;;5.90;5.32;;;;;;;19.11;70.46;96513.00;6156143;23;20024;-77
2022/06/29 04:34:04;;;;;;;5.03;4.53;;;;;;;19.17;72.45;96509.41;6155403;23;20013;-77
2022/06/29 04:36:32;;;;;;;5.60;5.10;;;;;;;19.20;71.10;96511.59;6156013;23;20017;-77
2022/06/29 04:39:00;;;;;;;5.47;4.97;;;;;;;19.25;71.35;96521.47;6154552;23;20473;-77
2022/06/29 04:41:27;;;;;;;7.47;5.05;;;;;;;19.28;70.88;96528.91;6156395;23;20632;-77
2022/06/29 04:43:55;;;;;;;6.85;5.90;;;;;;;19.32;70.43;96519.44;6158974;23;20338;-77
2022/06/29 04:46:23;;;;;;;34.85;26.73;;;;;;;19.39;71.28;96527.22;6157971;23;20033;-77
2022/06/29 04:48:55;;;;;;;7.40;6.70;;;;;;;19.42;70.88;96532.06;6156785;23;20104;-77
2022/06/29 04:51:24;;;;;;;6.78;6.07;;;;;;;19.45;70.50;96539.50;6156913;23;20477;-77
2022/06/29 04:53:54;;;;;;;5.55;4.93;;;;;;;19.47;70.49;96535.56;6157514;23;20048;-77
2022/06/29 04:56:23;;;;;;;6.55;5.43;;;;;;;19.50;70.45;96532.47;6157602;23;20072;-77
2022/06/29 04:58:53;;;;;;;5.68;4.63;;;;;;;19.54;70.49;96522.19;6156644;23;20338;-77
2022/06/29 05:01:21;;;;;;;6.53;5.45;;;;;;;19.59;70.45;96526.75;6170246;23;20025;-77
2022/06/29 05:03:49;;;;;;;5.80;5.25;;;;;;;19.63;70.78;96527.88;6176742;23;20021;-77
2022/06/29 05:06:18;;;;;;;7.25;4.88;;;;;;;19.68;72.30;96525.34;6166735;23;20482;-75
2022/06/29 05:08:46;;;;;;;6.13;5.35;;;;;;;19.74;72.67;96525.19;6156616;23;20025;-77
2022/06/29 05:11:14;;;;;;;6.72;5.03;;;;;;;19.80;71.44;96522.63;6155801;23;20061;-77
2022/06/29 05:13:42;;;;;;;7.90;5.78;;;;;;;19.83;70.77;96515.00;6155572;23;20049;-77
2022/06/29 05:16:10;;;;;;;6.40;4.85;;;;;;;19.88;71.44;96517.72;6156237;23;20033;-76
2022/06/29 05:18:38;;;;;;;7.07;5.35;;;;;;;19.93;71.10;96514.34;6155864;23;20045;-76
2022/06/29 05:21:07;;;;;;;8.25;6.18;;;;;;;19.94;70.67;96508.81;6155305;23;20026;-77
2022/06/29 05:23:37;;;;;;;9.05;5.72;;;;;;;19.97;70.97;96510.16;6155471;23;20056;-78
2022/06/29 05:26:04;;;;;;;16.48;7.72;;;;;;;20.01;70.84;96511.28;6157301;23;20362;-81
2022/06/29 05:28:33;;;;;;;10.30;6.13;;;;;;;20.05;71.38;96511.56;6157018;23;20426;-81
2022/06/29 05:31:01;;;;;;;7.72;5.50;;;;;;;20.10;70.96;96501.88;6156173;23;20084;-81
2022/06/29 05:33:36;;;;;;;7.47;5.70;;;;;;;20.14;71.64;96499.53;6154679;23;20167;-79
2022/06/29 05:36:04;;;;;;;8.75;6.05;;;;;;;20.19;72.08;96496.16;6153088;23;20014;-79
2022/06/29 05:38:32;;;;;;;11.80;5.45;;;;;;;20.23;72.62;96503.34;6153466;23;20025;-79
2022/06/29 05:41:02;;;;;;;7.65;5.72;;;;;;;20.26;72.39;96508.16;6153248;23;20087;-79
2022/06/29 05:43:31;;;;;;;6.25;5.65;;;;;;;20.29;71.61;96510.34;6152918;23;20037;-79
2022/06/29 05:45:59;;;;;;;7.18;6.47;;;;;;;20.29;70.53;96512.97;6153443;23;20066;-79
2022/06/29 05:48:26;;;;;;;6.43;5.82;;;;;;;20.27;70.20;96514.25;6153367;23;20017;-79
2022/06/29 05:50:54;;;;;;;7.55;5.65;;;;;;;20.26;70.34;96507.34;6154757;23;20045;-79
2022/06/29 05:53:22;;;;;;;6.93;5.65;;;;;;;20.29;70.82;96501.56;6154975;23;20025;-79
2022/06/29 05:55:50;;;;;;;5.53;4.80;;;;;;;20.31;70.69;96499.47;6155566;23;20021;-79
2022/06/29 05:58:20;;;;;;;6.45;5.80;;;;;;;20.34;70.32;96506.94;6155536;23;20033;-80
2022/06/29 06:00:48;;;;;;;5.47;4.90;;;;;;;20.37;71.21;96509.09;6155331;23;20088;-79
2022/06/29 06:03:15;;;;;;;5.30;4.80;;;;;;;20.41;71.89;96522.66;6155491;23;20466;-79
2022/06/29 06:05:43;;;;;;;8.50;5.47;;;;;;;20.45;71.24;96516.63;6155156;23;20516;-79
2022/06/29 06:08:12;;;;;;;6.55;5.85;;;;;;;20.48;71.10;96526.69;6155283;23;20048;-79
2022/06/29 06:10:41;;;;;;;6.20;5.53;;;;;;;20.51;71.48;96526.22;6154777;23;20025;-79
2022/06/29 06:13:09;;;;;;;7.88;6.18;;;;;;;20.51;69.74;96520.94;6155388;23;20393;-79
2022/06/29 06:15:38;;;;;;;6.28;5.68;;;;;;;20.54;70.91;96525.72;6154387;23;20024;-78
2022/06/29 06:18:06;;;;;;;9.38;5.40;;;;;;;20.58;71.30;96526.88;6154825;23;20033;-79
2022/06/29 06:20:34;;;;;;;9.85;6.63;;;;;;;20.61;70.50;96519.47;6154879;23;20361;-79
2022/06/29 06:23:02;;;;;;;8.13;6.90;;;;;;;20.62;70.06;96521.06;6155195;23;20080;-79
2022/06/29 06:25:30;;;;;;;6.35;5.75;;;;;;;20.62;69.91;96521.06;6155055;23;20025;-79
2022/06/29 06:27:58;;;;;;;10.50;6.22;;;;;;;20.63;69.48;96512.88;6155193;23;20057;-79
2022/06/29 06:30:26;;;;;;;7.70;6.50;;;;;;;20.65;69.30;96515.28;6154625;23;20025;-79
2022/06/29 06:32:56;;;;;;;7.03;5.20;;;;;;;20.69;70.59;96521.69;6155132;23;20064;-79
2022/06/29 06:35:23;;;;;;;11.25;6.47;;;;;;;20.72;70.31;96521.19;6154371;23;20092;-79
2022/06/29 06:37:52;;;;;;;8.15;6.88;;;;;;;20.74;69.90;96521.75;6154849;23;20025;-79
2022/06/29 06:43:04;;;;;;;7.57;6.25;;;;;;;20.78;70.61;96525.50;6155057;23;20470;-79
2022/06/29 06:45:33;;;;;;;6.55;5.32;;;;;;;20.80;70.86;96512.81;6155177;23;20021;-79
2022/06/29 06:48:02;;;;;;;10.93;7.03;;;;;;;20.82;69.55;96521.31;6154607;23;20052;-79
2022/06/29 06:50:30;;;;;;;6.10;5.47;;;;;;;20.85;70.06;96520.78;6154767;23;20080;-79
2022/06/29 06:52:57;;;;;;;10.10;6.97;;;;;;;20.88;69.30;96525.63;6154461;23;20048;-79
2022/06/29 06:55:25;;;;;;;12.35;7.38;;;;;;;20.92;69.71;96525.91;6154792;23;20094;-79
2022/06/29 06:57:53;;;;;;;8.95;6.55;;;;;;;20.96;69.99;96524.34;6154488;23;20466;-79
2022/06/29 07:00:20;;;;;;;8.45;6.18;;;;;;;20.99;70.30;96521.22;6154258;23;20113;-79
2022/06/29 07:02:48;;;;;;;8.85;6.28;;;;;;;21.03;69.88;96521.50;6154367;23;20457;-79
2022/06/29 07:05:17;;;;;;;9.07;7.32;;;;;;;21.07;69.98;96522.63;6154152;23;20047;-79
2022/06/29 07:07:45;;;;;;;10.38;7.35;;;;;;;21.09;69.01;96515.22;6154808;23;20076;-78
2022/06/29 07:10:12;;;;;;;7.75;7.00;;;;;;;21.12;69.29;96527.97;6154360;23;20076;-79
2022/06/29 07:12:40;;;;;;;8.60;7.10;;;;;;;21.16;68.32;96532.50;6154452;23;20097;-79
2022/06/29 07:15:08;;;;;;;9.45;7.55;;;;;;;21.18;68.14;96529.59;6154010;23;20088;-79
2022/06/29 07:17:35;;;;;;;7.25;6.47;;;;;;;21.18;68.01;96529.59;6154261;23;20038;-79
2022/06/29 07:20:06;;;;;;;7.75;5.55;;;;;;;21.20;68.16;96530.97;6154557;23;20101;-79
2022/06/29 07:22:35;;;;;;;7.97;5.82;;;;;;;21.26;68.59;96533.69;6154769;23;20101;-79
2022/06/29 07:25:03;;;;;;;7.93;6.53;;;;;;;21.30;68.33;96532.91;6154939;23;20085;-79
2022/06/29 07:27:30;;;;;;;8.32;6.40;;;;;;;21.33;68.39;96532.41;6156849;23;20096;-79
2022/06/29 07:29:58;;;;;;;10.95;7.35;;;;;;;21.37;67.47;96540.69;6156428;23;20042;-79
2022/06/29 07:32:26;;;;;;;7.95;7.15;;;;;;;21.37;66.81;96538.81;6156633;23;20025;-79
2022/06/29 07:34:53;;;;;;;9.77;7.80;;;;;;;21.37;66.87;96533.50;6156393;23;20080;-79
2022/06/29 07:37:21;;;;;;;8.63;7.47;;;;;;;21.40;67.12;96532.19;6157082;23;20053;-79
2022/06/29 07:39:50;;;;;;;9.07;7.30;;;;;;;21.42;67.14;96539.94;6156974;23;20026;-79
2022/06/29 07:42:38;;;;;;;10.30;6.88;;;;;;;21.42;66.94;96522.16;6156854;23;20024;-79
2022/06/29 07:45:07;;;;;;;8.52;6.60;;;;;;;21.46;67.13;96533.88;6156807;23;20390;-79
2022/06/29 07:47:35;;;;;;;7.38;6.60;;;;;;;21.47;66.91;96530.19;6156433;23;20021;-78
2022/06/29 07:50:03;;;;;;;7.85;7.05;;;;;;;21.49;66.30;96525.41;6156541;23;20406;-79
2022/06/29 07:52:33;;;;;;;7.93;6.95;;;;;;;21.49;66.22;96519.28;6156263;23;20056;-78
2022/06/29 07:55:02;;;;;;;7.43;6.57;;;;;;;21.51;66.63;96522.50;6156613;23;20029;-79
2022/06/29 07:57:30;;;;;;;13.15;6.90;;;;;;;21.52;66.23;96521.47;6156376;23;20454;-79
2022/06/29 07:59:57;;;;;;;7.63;6.30;;;;;;;21.53;66.89;96525.69;6156587;23;20409;-79
2022/06/29 08:02:25;;;;;;;8.13;6.10;;;;;;;21.56;66.82;96522.56;6156631;23;20028;-79
2022/06/29 08:04:53;;;;;;;10.15;6.63;;;;;;;21.58;66.83;96518.59;6156442;23;20092;-79
2022/06/29 08:07:32;;;;;;;10.25;6.97;;;;;;;21.63;66.71;96519.69;6156921;23;20365;-79
2022/06/29 08:09:59;;;;;;;8.27;6.57;;;;;;;21.65;66.64;96515.72;6156980;23;20076;-79
2022/06/29 08:12:28;;;;;;;9.15;6.90;;;;;;;21.68;66.34;96517.06;6176933;23;20021;-80
2022/06/29 08:14:56;;;;;;;6.82;6.07;;;;;;;21.69;66.43;96514.16;6177513;23;20022;-80
2022/06/29 08:17:24;;;;;;;7.45;5.65;;;;;;;21.72;66.57;96513.63;6161186;23;20397;-79
2022/06/29 08:19:59;;;;;;;6.25;5.68;;;;;;;21.76;66.55;96514.72;6159065;23;20021;-79
2022/06/29 08:22:27;;;;;;;7.78;5.32;;;;;;;21.78;66.03;96512.63;6158447;23;20109;-79
2022/06/29 08:24:54;;;;;;;9.30;5.72;;;;;;;21.77;65.60;96518.97;6157981;23;20053;-79
2022/06/29 08:27:22;;;;;;;6.47;5.20;;;;;;;21.76;65.73;96514.72;6156905;23;20397;-79
2022/06/29 08:30:13;;;;;;;7.43;5.28;;;;;;;21.75;65.69;96514.97;6156322;23;20018;-79
2022/06/29 08:32:41;;;;;;;5.55;4.90;;;;;;;21.71;65.65;96506.75;6157101;23;20053;-79
2022/06/29 08:35:10;;;;;;;8.05;3.97;;;;;;;21.72;65.41;96511.00;6156889;23;20029;-79
2022/06/29 08:37:38;;;;;;;7.07;4.28;;;;;;;21.74;65.05;96508.88;6156046;23;20477;-79
2022/06/29 08:40:08;;;;;;;6.85;5.05;;;;;;;21.77;65.25;96513.66;6156694;23;20025;-79
2022/06/29 08:42:38;;;;;;;5.45;4.50;;;;;;;21.79;65.50;96511.56;6156440;23;20021;-79
2022/06/29 08:45:07;;;;;;;5.63;4.22;;;;;;;21.83;65.03;96513.72;6156196;23;20528;-79
2022/06/29 08:47:37;;;;;;;7.45;4.22;;;;;;;21.84;65.37;96504.69;6156636;23;20021;-79
2022/06/29 08:50:05;;;;;;;6.18;4.32;;;;;;;21.89;65.60;96502.88;6155799;23;20330;-79
2022/06/29 08:52:35;;;;;;;9.10;5.45;;;;;;;21.94;65.42;96499.44;6156867;23;20076;-79
2022/06/29 08:55:04;;;;;;;5.75;5.03;;;;;;;21.97;65.08;96494.44;6156978;23;20021;-79
2022/06/29 08:57:35;;;;;;;4.85;4.35;;;;;;;22.02;64.75;96491.00;6156024;23;20076;-79
2022/06/29 09:00:04;;;;;;;7.72;5.40;;;;;;;22.07;64.67;96499.00;6155863;23;20357;-79
2022/06/29 09:02:32;;;;;;;7.18;4.47;;;;;;;22.13;65.01;96497.97;6155939;23;20025;-79
2022/06/29 09:05:03;;;;;;;7.68;4.38;;;;;;;22.19;65.02;96506.75;6156076;23;20084;-79
2022/06/29 09:07:30;;;;;;;4.97;4.47;;;;;;;22.24;65.12;96498.03;6156049;23;20104;-79
2022/06/29 09:10:03;;;;;;;4.53;4.10;;;;;;;22.29;65.67;96500.72;6155428;23;20021;-79
2022/06/29 09:12:32;;;;;;;5.28;4.78;;;;;;;22.34;65.71;96501.53;6155960;23;20105;-79
2022/06/29 09:15:00;;;;;;;5.75;5.15;;;;;;;22.38;65.29;96496.50;6155574;23;20033;-79
2022/06/29 09:17:31;;;;;;;7.10;5.53;;;;;;;22.40;64.88;96502.38;6155480;23;20090;-79
2022/06/29 09:19:59;;;;;;;5.63;5.05;;;;;;;22.43;64.39;96496.53;6155711;23;20059;-79
2022/06/29 09:22:53;;;;;;;6.63;5.53;;;;;;;22.47;64.93;96502.91;6155162;23;20021;-79
2022/06/29 09:25:22;;;;;;;8.32;5.70;;;;;;;22.51;65.31;96504.00;6155439;23;20116;-79
2022/06/29 09:27:49;;;;;;;6.47;5.20;;;;;;;22.53;64.46;96507.19;6155446;23;20025;-79
2022/06/29 09:30:26;;;;;;;10.27;5.10;;;;;;;22.56;64.75;96514.63;6155374;23;20093;-79
2022/06/29 09:33:03;;;;;;;7.30;5.15;;;;;;;22.58;64.10;96515.19;6155613;23;20022;-79
2022/06/29 09:35:31;;;;;;;6.65;5.75;;;;;;;22.59;64.07;96511.47;6155236;23;20013;-80
2022/06/29 09:38:21;;;;;;;6.30;4.40;;;;;;;22.61;64.37;96504.03;6155147;23;20018;-79
2022/06/29 09:41:03;;;;;;;8.38;5.85;;;;;;;22.63;64.12;96509.91;6139557;23;20075;-79
2022/06/29 09:43:33;;;;;;;4.97;4.50;;;;;;;22.65;64.09;96516.81;6155282;23;20025;-78
2022/06/29 09:46:01;;;;;;;6.90;4.78;;;;;;;22.67;64.09;96522.66;6155670;23;20057;-79
2022/06/29 09:48:31;;;;;;;7.30;5.18;;;;;;;22.68;63.95;96519.75;6155406;23;20024;-79
2022/06/29 09:50:59;;;;;;;6.95;5.40;;;;;;;22.71;63.82;96515.75;6155142;23;20026;-79
2022/06/29 09:53:37;;;;;;;6.25;4.95;;;;;;;22.70;63.42;96522.94;6155206;23;20032;-79
2022/06/29 09:56:07;;;;;;;6.32;4.82;;;;;;;22.71;63.50;96515.75;6155069;23;20029;-79
2022/06/29 09:58:41;;;;;;;5.82;4.95;;;;;;;22.72;63.77;96515.50;6155442;23;20132;-79
2022/06/29 10:03:56;;;;;;;6.78;5.18;;;;;;;22.70;63.07;96511.53;6155392;23;20100;-79
2022/06/29 10:06:24;;;;;;;6.78;4.95;;;;;;;22.69;62.88;96509.91;6155269;23;20084;-79
2022/06/29 10:09:02;;;;;;;5.75;4.68;;;;;;;22.68;63.36;96509.13;6155357;23;20026;-79
2022/06/29 10:14:37;;;;;;;5.32;4.82;;;;;;;22.69;62.79;96509.91;6155713;23;20021;-75
2022/06/29 10:17:15;;;;;;;5.97;4.72;;;;;;;22.68;63.08;96516.31;6155273;23;20076;-76
2022/06/29 10:19:56;;;;;;;9.27;4.72;;;;;;;22.67;62.78;96515.47;6155293;23;20331;-76
2022/06/29 10:22:24;;;;;;;5.18;4.68;;;;;;;22.66;63.06;96516.56;6154567;23;20025;-76
2022/06/29 10:25:04;;;;;;;7.85;4.32;;;;;;;22.68;63.52;96518.97;6155020;23;20021;-75
2022/06/29 10:27:32;;;;;;;7.88;4.60;;;;;;;22.71;63.37;96519.22;6154707;23;20057;-76
2022/06/29 10:30:19;;;;;;;4.95;4.18;;;;;;;22.76;63.72;96519.25;6154745;23;20022;-76
2022/06/29 10:32:47;;;;;;;5.03;4.00;;;;;;;22.82;63.30;96520.06;6154802;23;20068;-75
2022/06/29 10:35:15;;;;;;;6.88;4.85;;;;;;;22.88;63.32;96515.56;6154913;23;20049;-76
2022/06/29 10:37:51;;;;;;;5.72;5.22;;;;;;;22.92;62.67;96512.09;6154640;23;20391;-76
2022/06/29 10:40:22;;;;;;;5.05;4.55;;;;;;;22.99;62.75;96517.97;6154566;23;20084;-76
2022/06/29 10:45:42;;;;;;;8.80;5.78;;;;;;;23.26;63.54;96510.84;6154341;23;20032;-75
2022/06/29 10:48:20;;;;;;;6.60;5.40;;;;;;;23.39;62.12;96505.78;6154752;23;20092;-76
2022/06/29 10:50:48;;;;;;;5.53;4.93;;;;;;;23.51;61.60;96494.09;6154441;23;20029;-76
2022/06/29 10:53:18;;;;;;;6.90;5.20;;;;;;;23.59;61.08;96494.38;6154664;23;20092;-76
2022/06/29 10:55:49;;;;;;;8.00;4.70;;;;;;;23.69;61.23;96498.88;6154919;23;20022;-75
2022/06/29 10:58:18;;;;;;;6.18;4.50;;;;;;;23.82;60.70;96492.22;6154707;23;20018;-76
2022/06/29 11:00:47;;;;;;;6.82;4.90;;;;;;;23.92;59.96;96489.56;6153806;23;20025;-76
2022/06/29 11:03:17;;;;;;;6.25;4.65;;;;;;;24.03;59.73;96492.97;6154635;23;20029;-76
2022/06/29 11:15:39;;;;;;;5.90;4.78;;;;;;;24.32;57.84;96471.06;6154632;23;20025;-76
2022/06/29 11:16:56;;;;;;;5.80;4.88;;;;;;;24.37;58.03;96471.03;6154151;23;20017;-76
2022/06/29 11:19:29;;;;;;;4.75;4.35;;;;;;;24.40;57.95;96470.47;6154370;23;20026;-76
2022/06/29 11:22:10;;;;;;;4.55;4.15;;;;;;;24.45;58.18;96470.47;6154891;23;20032;-76
2022/06/29 11:24:55;;;;;;;5.00;4.53;;;;;;;24.51;57.80;96464.06;6155146;23;20026;-77
2022/06/29 11:27:31;;;;;;;11.13;5.18;;;;;;;24.57;57.32;96465.63;6155127;23;20394;-76
2022/06/29 11:29:59;;;;;;;5.05;4.00;;;;;;;24.64;57.27;96455.47;6154614;23;20021;-76
2022/06/29 11:32:34;;;;;;;4.97;4.53;;;;;;;24.77;57.24;96469.25;6155103;23;20411;-76
2022/06/29 11:35:02;;;;;;;7.07;4.72;;;;;;;24.87;56.98;96461.19;6154541;23;20022;-76
2022/06/29 11:37:37;;;;;;;5.57;4.05;;;;;;;24.95;56.46;96463.28;6154525;23;20504;-76
2022/06/29 11:40:06;;;;;;;5.20;4.70;;;;;;;25.01;55.84;96458.69;6154545;23;20076;-76
2022/06/29 11:45:20;;;;;;;4.80;4.25;;;;;;;25.09;55.79;96458.91;6155107;23;20068;-77
2022/06/29 11:47:52;;;;;;;7.78;4.45;;;;;;;25.14;55.50;96454.59;6154951;23;20398;-77
2022/06/29 11:50:20;;;;;;;5.90;4.22;;;;;;;25.19;55.13;96449.22;6154320;23;20052;-76
2022/06/29 11:52:50;;;;;;;7.35;4.13;;;;;;;25.21;54.36;96458.59;6154445;23;20026;-76
2022/06/29 11:55:39;;;;;;;4.68;4.25;;;;;;;25.26;54.92;96452.41;6154884;23;20057;-76
2022/06/29 11:58:11;;;;;;;6.35;4.45;;;;;;;25.29;54.15;96446.50;6154477;23;20025;-76
2022/06/29 12:00:39;;;;;;;5.13;4.63;;;;;;;25.33;54.25;96447.53;6153957;23;20096;-76
2022/06/29 12:03:08;;;;;;;5.75;3.78;;;;;;;25.38;53.94;96444.03;6155478;23;20133;-76
2022/06/29 12:05:37;;;;;;;5.55;4.50;;;;;;;25.43;54.39;96436.78;6155983;23;20056;-77
2022/06/29 12:08:04;;;;;;;5.72;4.25;;;;;;;25.51;53.53;96447.91;6176040;23;20021;-76
2022/06/29 12:10:33;;;;;;;4.75;4.00;;;;;;;25.55;53.69;96440.94;6174094;23;20395;-77